sensor_id;sensor_type;location;lat;lon;timestamp;temperature;humidity
48806;DHT22;34625;47.176;27.548;2023-03-13T00:00:50;20.80;56.70
48806;DHT22;34625;47.176;27.548;2023-03-13T00:03:16;20.70;56.40
48806;DHT22;34625;47.176;27.548;2023-03-13T00:05:42;20.80;56.40
48806;DHT22;34625;47.176;27.548;2023-03-13T00:08:08;20.70;56.20
48806;DHT22;34625;47.176;27.548;2023-03-13T00:10:38;20.60;56.20
48806;DHT22;34625;47.176;27.548;2023-03-13T00:13:05;20.60;56.20
48806;DHT22;34625;47.176;27.548;2023-03-13T00:15:31;20.80;56.30
48806;DHT22;34625;47.176;27.548;2023-03-13T00:17:57;20.60;56.30
48806;DHT22;34625;47.176;27.548;2023-03-13T00:20:23;20.60;56.20
48806;DHT22;34625;47.176;27.548;2023-03-13T00:22:49;20.60;56.20
48806;DHT22;34625;47.176;27.548;2023-03-13T00:25:16;20.80;56.10
48806;DHT22;34625;47.176;27.548;2023-03-13T00:27:41;20.70;56.00
48806;DHT22;34625;47.176;27.548;2023-03-13T00:30:08;20.70;55.90
48806;DHT22;34625;47.176;27.548;2023-03-13T00:32:43;20.80;55.90
48806;DHT22;34625;47.176;27.548;2023-03-13T00:35:14;20.60;55.60
48806;DHT22;34625;47.176;27.548;2023-03-13T00:37:41;20.70;55.80
48806;DHT22;34625;47.176;27.548;2023-03-13T00:40:09;20.70;55.70
48806;DHT22;34625;47.176;27.548;2023-03-13T00:42:35;20.70;55.60
48806;DHT22;34625;47.176;27.548;2023-03-13T00:45:01;20.60;55.40
48806;DHT22;34625;47.176;27.548;2023-03-13T00:47:27;20.60;55.30
48806;DHT22;34625;47.176;27.548;2023-03-13T00:49:53;20.70;55.40
48806;DHT22;34625;47.176;27.548;2023-03-13T00:52:19;20.60;55.30
48806;DHT22;34625;47.176;27.548;2023-03-13T00:54:45;20.60;55.30
48806;DHT22;34625;47.176;27.548;2023-03-13T00:57:12;20.70;55.40
48806;DHT22;34625;47.176;27.548;2023-03-13T00:59:37;20.60;55.30
48806;DHT22;34625;47.176;27.548;2023-03-13T01:02:04;20.50;55.40
48806;DHT22;34625;47.176;27.548;2023-03-13T01:04:31;20.50;55.40
48806;DHT22;34625;47.176;27.548;2023-03-13T01:06:57;20.60;55.30
48806;DHT22;34625;47.176;27.548;2023-03-13T01:09:23;20.50;55.40
48806;DHT22;34625;47.176;27.548;2023-03-13T01:11:49;20.50;55.40
48806;DHT22;34625;47.176;27.548;2023-03-13T01:14:17;20.40;55.40
48806;DHT22;34625;47.176;27.548;2023-03-13T01:16:43;20.40;55.40
48806;DHT22;34625;47.176;27.548;2023-03-13T01:19:12;20.40;55.40
48806;DHT22;34625;47.176;27.548;2023-03-13T01:21:40;20.40;55.40
48806;DHT22;34625;47.176;27.548;2023-03-13T01:24:06;20.30;55.40
48806;DHT22;34625;47.176;27.548;2023-03-13T01:26:33;20.30;55.30
48806;DHT22;34625;47.176;27.548;2023-03-13T01:28:59;20.30;55.20
48806;DHT22;34625;47.176;27.548;2023-03-13T01:31:30;20.30;55.00
48806;DHT22;34625;47.176;27.548;2023-03-13T01:34:00;20.50;55.00
48806;DHT22;34625;47.176;27.548;2023-03-13T01:36:27;20.50;54.90
48806;DHT22;34625;47.176;27.548;2023-03-13T01:38:55;20.40;54.80
48806;DHT22;34625;47.176;27.548;2023-03-13T01:41:23;20.30;54.80
48806;DHT22;34625;47.176;27.548;2023-03-13T01:43:50;20.30;54.90
48806;DHT22;34625;47.176;27.548;2023-03-13T01:52:12;20.30;54.90
48806;DHT22;34625;47.176;27.548;2023-03-13T01:54:58;20.30;54.60
48806;DHT22;34625;47.176;27.548;2023-03-13T01:57:32;20.30;54.60
48806;DHT22;34625;47.176;27.548;2023-03-13T02:00:26;20.40;54.50
48806;DHT22;34625;47.176;27.548;2023-03-13T02:02:56;20.50;54.50
48806;DHT22;34625;47.176;27.548;2023-03-13T02:05:26;20.40;54.40
48806;DHT22;34625;47.176;27.548;2023-03-13T02:08:10;20.30;54.40
48806;DHT22;34625;47.176;27.548;2023-03-13T02:10:42;20.40;54.40
48806;DHT22;34625;47.176;27.548;2023-03-13T02:13:10;20.40;54.40
48806;DHT22;34625;47.176;27.548;2023-03-13T02:15:40;20.40;54.30
48806;DHT22;34625;47.176;27.548;2023-03-13T02:18:07;20.30;54.30
48806;DHT22;34625;47.176;27.548;2023-03-13T02:20:34;20.30;54.40
48806;DHT22;34625;47.176;27.548;2023-03-13T02:25:43;20.20;54.40
48806;DHT22;34625;47.176;27.548;2023-03-13T02:28:12;20.20;54.50
48806;DHT22;34625;47.176;27.548;2023-03-13T02:30:41;20.20;54.60
48806;DHT22;34625;47.176;27.548;2023-03-13T02:33:09;20.10;54.50
48806;DHT22;34625;47.176;27.548;2023-03-13T02:35:36;20.10;54.70
48806;DHT22;34625;47.176;27.548;2023-03-13T02:38:08;20.10;54.70
48806;DHT22;34625;47.176;27.548;2023-03-13T02:40:38;20.10;54.70
48806;DHT22;34625;47.176;27.548;2023-03-13T02:43:11;20.00;54.60
48806;DHT22;34625;47.176;27.548;2023-03-13T02:45:40;20.00;54.70
48806;DHT22;34625;47.176;27.548;2023-03-13T02:48:07;20.00;54.60
48806;DHT22;34625;47.176;27.548;2023-03-13T02:50:35;20.00;54.50
48806;DHT22;34625;47.176;27.548;2023-03-13T02:53:06;20.00;54.40
48806;DHT22;34625;47.176;27.548;2023-03-13T02:55:40;20.10;54.30
48806;DHT22;34625;47.176;27.548;2023-03-13T02:58:07;20.00;54.10
48806;DHT22;34625;47.176;27.548;2023-03-13T03:00:35;20.10;54.10
48806;DHT22;34625;47.176;27.548;2023-03-13T03:03:01;20.00;53.90
48806;DHT22;34625;47.176;27.548;2023-03-13T03:05:27;20.00;53.80
48806;DHT22;34625;47.176;27.548;2023-03-13T03:07:53;20.00;53.80
48806;DHT22;34625;47.176;27.548;2023-03-13T03:10:19;20.00;53.80
48806;DHT22;34625;47.176;27.548;2023-03-13T03:12:45;20.00;53.60
48806;DHT22;34625;47.176;27.548;2023-03-13T03:15:12;20.10;53.60
48806;DHT22;34625;47.176;27.548;2023-03-13T03:17:42;20.10;53.50
48806;DHT22;34625;47.176;27.548;2023-03-13T03:20:09;20.10;53.60
48806;DHT22;34625;47.176;27.548;2023-03-13T03:22:38;20.10;53.50
48806;DHT22;34625;47.176;27.548;2023-03-13T03:25:06;20.20;53.40
48806;DHT22;34625;47.176;27.548;2023-03-13T03:27:34;20.20;53.40
48806;DHT22;34625;47.176;27.548;2023-03-13T03:30:04;20.20;53.30
48806;DHT22;34625;47.176;27.548;2023-03-13T03:32:32;20.20;53.40
48806;DHT22;34625;47.176;27.548;2023-03-13T03:34:58;20.10;53.40
48806;DHT22;34625;47.176;27.548;2023-03-13T03:37:24;20.10;53.50
48806;DHT22;34625;47.176;27.548;2023-03-13T03:39:51;19.90;53.40
48806;DHT22;34625;47.176;27.548;2023-03-13T03:42:17;20.00;53.60
48806;DHT22;34625;47.176;27.548;2023-03-13T03:44:43;20.10;53.70
48806;DHT22;34625;47.176;27.548;2023-03-13T03:47:10;19.90;53.70
48806;DHT22;34625;47.176;27.548;2023-03-13T03:49:40;19.90;53.90
48806;DHT22;34625;47.176;27.548;2023-03-13T03:52:09;19.80;53.90
48806;DHT22;34625;47.176;27.548;2023-03-13T03:54:38;19.90;53.90
48806;DHT22;34625;47.176;27.548;2023-03-13T03:57:04;20.00;53.90
48806;DHT22;34625;47.176;27.548;2023-03-13T03:59:31;19.80;53.90
48806;DHT22;34625;47.176;27.548;2023-03-13T04:02:02;19.80;53.90
48806;DHT22;34625;47.176;27.548;2023-03-13T04:04:29;19.90;53.90
48806;DHT22;34625;47.176;27.548;2023-03-13T04:07:01;19.80;53.80
48806;DHT22;34625;47.176;27.548;2023-03-13T04:09:28;19.80;53.90
48806;DHT22;34625;47.176;27.548;2023-03-13T04:11:54;19.70;54.00
48806;DHT22;34625;47.176;27.548;2023-03-13T04:14:21;19.70;53.90
48806;DHT22;34625;47.176;27.548;2023-03-13T04:16:47;19.70;53.90
48806;DHT22;34625;47.176;27.548;2023-03-13T04:19:14;19.70;53.90
48806;DHT22;34625;47.176;27.548;2023-03-13T04:21:41;19.70;53.90
48806;DHT22;34625;47.176;27.548;2023-03-13T04:24:11;19.70;53.70
48806;DHT22;34625;47.176;27.548;2023-03-13T04:26:40;19.80;53.60
48806;DHT22;34625;47.176;27.548;2023-03-13T04:29:06;19.70;53.40
48806;DHT22;34625;47.176;27.548;2023-03-13T04:31:58;19.70;53.20
48806;DHT22;34625;47.176;27.548;2023-03-13T04:34:30;19.80;53.10
48806;DHT22;34625;47.176;27.548;2023-03-13T04:37:25;19.80;53.20
48806;DHT22;34625;47.176;27.548;2023-03-13T04:40:07;19.90;53.00
48806;DHT22;34625;47.176;27.548;2023-03-13T04:42:56;19.90;52.80
48806;DHT22;34625;47.176;27.548;2023-03-13T04:45:38;20.10;52.80
48806;DHT22;34625;47.176;27.548;2023-03-13T04:48:22;20.10;52.60
48806;DHT22;34625;47.176;27.548;2023-03-13T04:50:59;20.20;52.60
48806;DHT22;34625;47.176;27.548;2023-03-13T04:53:30;20.20;52.70
48806;DHT22;34625;47.176;27.548;2023-03-13T04:56:27;20.40;52.50
48806;DHT22;34625;47.176;27.548;2023-03-13T04:59:06;20.70;52.10
48806;DHT22;34625;47.176;27.548;2023-03-13T05:01:55;20.90;51.40
48806;DHT22;34625;47.176;27.548;2023-03-13T05:04:36;21.20;51.00
48806;DHT22;34625;47.176;27.548;2023-03-13T05:07:21;21.10;50.80
48806;DHT22;34625;47.176;27.548;2023-03-13T05:10:05;21.20;51.20
48806;DHT22;34625;47.176;27.548;2023-03-13T05:12:44;21.20;53.80
48806;DHT22;34625;47.176;27.548;2023-03-13T05:15:21;21.80;56.80
48806;DHT22;34625;47.176;27.548;2023-03-13T05:18:07;22.40;59.10
48806;DHT22;34625;47.176;27.548;2023-03-13T05:20:57;22.40;61.60
48806;DHT22;34625;47.176;27.548;2023-03-13T05:23:37;22.50;58.10
48806;DHT22;34625;47.176;27.548;2023-03-13T05:26:22;22.30;55.50
48806;DHT22;34625;47.176;27.548;2023-03-13T05:29:06;22.30;52.10
48806;DHT22;34625;47.176;27.548;2023-03-13T05:31:53;22.30;49.50
48806;DHT22;34625;47.176;27.548;2023-03-13T05:34:37;22.00;49.00
48806;DHT22;34625;47.176;27.548;2023-03-13T05:37:32;21.80;49.30
48806;DHT22;34625;47.176;27.548;2023-03-13T05:40:25;21.80;50.10
48806;DHT22;34625;47.176;27.548;2023-03-13T05:43:13;21.50;50.60
48806;DHT22;34625;47.176;27.548;2023-03-13T05:45:59;21.30;51.00
48806;DHT22;34625;47.176;27.548;2023-03-13T05:48:58;21.40;51.60
48806;DHT22;34625;47.176;27.548;2023-03-13T05:51:50;21.30;51.70
48806;DHT22;34625;47.176;27.548;2023-03-13T05:54:35;21.30;52.20
48806;DHT22;34625;47.176;27.548;2023-03-13T05:57:19;21.30;52.30
48806;DHT22;34625;47.176;27.548;2023-03-13T06:00:06;21.40;52.50
48806;DHT22;34625;47.176;27.548;2023-03-13T06:02:55;21.20;50.00
48806;DHT22;34625;47.176;27.548;2023-03-13T06:05:29;21.40;48.10
48806;DHT22;34625;47.176;27.548;2023-03-13T06:07:56;21.60;47.80
48806;DHT22;34625;47.176;27.548;2023-03-13T06:10:22;21.80;45.40
48806;DHT22;34625;47.176;27.548;2023-03-13T06:12:52;22.10;50.80
48806;DHT22;34625;47.176;27.548;2023-03-13T06:15:19;22.10;45.10
48806;DHT22;34625;47.176;27.548;2023-03-13T06:17:58;22.10;44.80
48806;DHT22;34625;47.176;27.548;2023-03-13T06:20:24;22.00;44.90
48806;DHT22;34625;47.176;27.548;2023-03-13T06:22:50;22.00;45.00
48806;DHT22;34625;47.176;27.548;2023-03-13T06:25:16;22.00;45.50
48806;DHT22;34625;47.176;27.548;2023-03-13T06:27:42;21.90;44.20
48806;DHT22;34625;47.176;27.548;2023-03-13T06:30:09;21.90;43.80
48806;DHT22;34625;47.176;27.548;2023-03-13T06:32:35;21.90;43.90
48806;DHT22;34625;47.176;27.548;2023-03-13T06:35:01;21.90;41.80
48806;DHT22;34625;47.176;27.548;2023-03-13T06:37:27;22.00;40.10
48806;DHT22;34625;47.176;27.548;2023-03-13T06:39:53;22.10;39.10
48806;DHT22;34625;47.176;27.548;2023-03-13T06:42:19;22.30;41.80
48806;DHT22;34625;47.176;27.548;2023-03-13T06:44:45;22.20;40.80
48806;DHT22;34625;47.176;27.548;2023-03-13T06:47:11;22.30;49.50
48806;DHT22;34625;47.176;27.548;2023-03-13T06:49:37;22.40;60.00
48806;DHT22;34625;47.176;27.548;2023-03-13T06:52:03;22.40;59.60
48806;DHT22;34625;47.176;27.548;2023-03-13T06:54:29;22.40;59.70
48806;DHT22;34625;47.176;27.548;2023-03-13T06:56:55;22.50;57.60
48806;DHT22;34625;47.176;27.548;2023-03-13T06:59:21;22.70;56.00
48806;DHT22;34625;47.176;27.548;2023-03-13T07:01:47;22.60;53.40
48806;DHT22;34625;47.176;27.548;2023-03-13T07:04:13;22.60;51.40
48806;DHT22;34625;47.176;27.548;2023-03-13T07:06:39;22.70;51.90
48806;DHT22;34625;47.176;27.548;2023-03-13T07:09:05;22.80;50.90
48806;DHT22;34625;47.176;27.548;2023-03-13T07:11:39;22.70;51.40
48806;DHT22;34625;47.176;27.548;2023-03-13T07:14:05;22.80;53.40
48806;DHT22;34625;47.176;27.548;2023-03-13T07:16:30;22.90;53.00
48806;DHT22;34625;47.176;27.548;2023-03-13T07:18:57;22.80;51.80
48806;DHT22;34625;47.176;27.548;2023-03-13T07:21:22;22.80;52.10
48806;DHT22;34625;47.176;27.548;2023-03-13T07:23:49;22.90;52.20
48806;DHT22;34625;47.176;27.548;2023-03-13T07:26:15;22.90;52.10
48806;DHT22;34625;47.176;27.548;2023-03-13T07:28:42;22.80;51.30
48806;DHT22;34625;47.176;27.548;2023-03-13T07:31:16;23.00;51.90
48806;DHT22;34625;47.176;27.548;2023-03-13T07:33:43;23.00;51.60
48806;DHT22;34625;47.176;27.548;2023-03-13T07:36:11;22.90;51.40
48806;DHT22;34625;47.176;27.548;2023-03-13T07:38:37;22.90;51.60
48806;DHT22;34625;47.176;27.548;2023-03-13T07:41:03;22.90;51.50
48806;DHT22;34625;47.176;27.548;2023-03-13T07:43:30;22.90;51.20
48806;DHT22;34625;47.176;27.548;2023-03-13T07:46:01;22.90;50.80
48806;DHT22;34625;47.176;27.548;2023-03-13T07:48:33;22.80;51.10
48806;DHT22;34625;47.176;27.548;2023-03-13T07:50:59;22.80;52.40
48806;DHT22;34625;47.176;27.548;2023-03-13T07:53:25;22.70;52.60
48806;DHT22;34625;47.176;27.548;2023-03-13T07:56:03;22.60;53.00
48806;DHT22;34625;47.176;27.548;2023-03-13T07:58:32;22.50;54.00
48806;DHT22;34625;47.176;27.548;2023-03-13T08:00:58;22.40;53.40
48806;DHT22;34625;47.176;27.548;2023-03-13T08:03:24;22.50;55.10
48806;DHT22;34625;47.176;27.548;2023-03-13T08:05:58;22.50;54.50
48806;DHT22;34625;47.176;27.548;2023-03-13T08:08:25;22.30;54.40
48806;DHT22;34625;47.176;27.548;2023-03-13T08:10:51;22.40;54.50
48806;DHT22;34625;47.176;27.548;2023-03-13T08:13:17;22.30;54.60
48806;DHT22;34625;47.176;27.548;2023-03-13T08:15:43;22.40;54.80
48806;DHT22;34625;47.176;27.548;2023-03-13T08:18:09;22.50;57.60
48806;DHT22;34625;47.176;27.548;2023-03-13T08:20:35;22.40;56.30
48806;DHT22;34625;47.176;27.548;2023-03-13T08:23:01;22.40;56.30
48806;DHT22;34625;47.176;27.548;2023-03-13T08:25:27;22.20;56.10
48806;DHT22;34625;47.176;27.548;2023-03-13T08:27:54;22.00;53.40
48806;DHT22;34625;47.176;27.548;2023-03-13T08:30:20;22.10;57.40
48806;DHT22;34625;47.176;27.548;2023-03-13T08:32:46;22.10;55.00
48806;DHT22;34625;47.176;27.548;2023-03-13T08:35:12;22.40;56.80
48806;DHT22;34625;47.176;27.548;2023-03-13T08:37:38;22.40;56.70
48806;DHT22;34625;47.176;27.548;2023-03-13T08:40:04;22.50;56.00
48806;DHT22;34625;47.176;27.548;2023-03-13T08:42:35;22.50;54.60
48806;DHT22;34625;47.176;27.548;2023-03-13T08:45:02;22.40;56.10
48806;DHT22;34625;47.176;27.548;2023-03-13T08:47:28;22.60;56.40
48806;DHT22;34625;47.176;27.548;2023-03-13T08:49:54;22.50;57.20
48806;DHT22;34625;47.176;27.548;2023-03-13T08:52:20;22.60;56.70
48806;DHT22;34625;47.176;27.548;2023-03-13T08:54:47;22.70;56.30
48806;DHT22;34625;47.176;27.548;2023-03-13T08:57:13;22.60;56.20
48806;DHT22;34625;47.176;27.548;2023-03-13T08:59:40;22.70;56.10
48806;DHT22;34625;47.176;27.548;2023-03-13T09:02:08;22.90;55.80
48806;DHT22;34625;47.176;27.548;2023-03-13T09:04:34;22.80;55.90
48806;DHT22;34625;47.176;27.548;2023-03-13T09:07:00;22.90;56.30
48806;DHT22;34625;47.176;27.548;2023-03-13T09:09:26;22.80;56.40
48806;DHT22;34625;47.176;27.548;2023-03-13T09:11:53;23.10;57.00
48806;DHT22;34625;47.176;27.548;2023-03-13T09:14:19;23.10;57.00
48806;DHT22;34625;47.176;27.548;2023-03-13T09:16:45;22.90;56.80
48806;DHT22;34625;47.176;27.548;2023-03-13T09:19:12;23.00;53.70
48806;DHT22;34625;47.176;27.548;2023-03-13T09:21:39;23.00;50.00
48806;DHT22;34625;47.176;27.548;2023-03-13T09:24:05;23.10;43.40
48806;DHT22;34625;47.176;27.548;2023-03-13T09:26:31;23.00;43.50
48806;DHT22;34625;47.176;27.548;2023-03-13T09:28:57;23.00;45.40
48806;DHT22;34625;47.176;27.548;2023-03-13T09:31:29;23.00;40.80
48806;DHT22;34625;47.176;27.548;2023-03-13T09:33:55;23.00;52.80
48806;DHT22;34625;47.176;27.548;2023-03-13T09:36:22;23.10;53.30
48806;DHT22;34625;47.176;27.548;2023-03-13T09:38:52;23.20;54.00
48806;DHT22;34625;47.176;27.548;2023-03-13T09:46:39;23.20;54.20
48806;DHT22;34625;47.176;27.548;2023-03-13T09:49:13;23.20;54.20
48806;DHT22;34625;47.176;27.548;2023-03-13T09:51:42;23.10;54.20
48806;DHT22;34625;47.176;27.548;2023-03-13T09:54:39;23.30;53.90
48806;DHT22;34625;47.176;27.548;2023-03-13T10:07:29;23.60;47.40
48806;DHT22;34625;47.176;27.548;2023-03-13T10:09:54;23.60;47.20
48806;DHT22;34625;47.176;27.548;2023-03-13T10:12:27;23.60;44.60
48806;DHT22;34625;47.176;27.548;2023-03-13T10:15:03;23.60;45.50
48806;DHT22;34625;47.176;27.548;2023-03-13T10:17:37;23.60;46.20
48806;DHT22;34625;47.176;27.548;2023-03-13T10:22:41;23.50;47.00
48806;DHT22;34625;47.176;27.548;2023-03-13T10:25:20;23.50;46.40
48806;DHT22;34625;47.176;27.548;2023-03-13T10:27:50;23.40;46.00
48806;DHT22;34625;47.176;27.548;2023-03-13T10:30:26;23.40;45.00
48806;DHT22;34625;47.176;27.548;2023-03-13T10:32:58;23.40;44.00
48806;DHT22;34625;47.176;27.548;2023-03-13T10:35:31;23.40;45.60
48806;DHT22;34625;47.176;27.548;2023-03-13T10:38:08;23.40;47.60
48806;DHT22;34625;47.176;27.548;2023-03-13T10:40:35;23.90;51.20
48806;DHT22;34625;47.176;27.548;2023-03-13T10:43:13;24.40;53.60
48806;DHT22;34625;47.176;27.548;2023-03-13T10:45:41;24.50;47.40
48806;DHT22;34625;47.176;27.548;2023-03-13T10:48:18;24.40;48.20
48806;DHT22;34625;47.176;27.548;2023-03-13T10:50:52;24.50;50.10
48806;DHT22;34625;47.176;27.548;2023-03-13T10:53:23;24.30;39.00
48806;DHT22;34625;47.176;27.548;2023-03-13T10:55:52;24.20;39.70
48806;DHT22;34625;47.176;27.548;2023-03-13T10:58:34;24.40;38.30
48806;DHT22;34625;47.176;27.548;2023-03-13T11:01:20;24.00;36.10
48806;DHT22;34625;47.176;27.548;2023-03-13T11:03:48;24.10;43.00
48806;DHT22;34625;47.176;27.548;2023-03-13T11:06:30;24.30;40.40
48806;DHT22;34625;47.176;27.548;2023-03-13T11:09:16;24.50;46.10
48806;DHT22;34625;47.176;27.548;2023-03-13T11:14:15;24.40;49.30
48806;DHT22;34625;47.176;27.548;2023-03-13T11:16:58;24.30;47.80
48806;DHT22;34625;47.176;27.548;2023-03-13T11:19:56;24.30;42.60
48806;DHT22;34625;47.176;27.548;2023-03-13T11:25:38;24.60;50.90
48806;DHT22;34625;47.176;27.548;2023-03-13T11:30:59;24.50;36.40
48806;DHT22;34625;47.176;27.548;2023-03-13T11:46:54;24.30;53.60
48806;DHT22;34625;47.176;27.548;2023-03-13T11:49:25;24.40;41.60
48806;DHT22;34625;47.176;27.548;2023-03-13T11:55:12;24.30;48.70
48806;DHT22;34625;47.176;27.548;2023-03-13T12:00:53;24.20;53.60
48806;DHT22;34625;47.176;27.548;2023-03-13T12:03:42;24.10;54.00
48806;DHT22;34625;47.176;27.548;2023-03-13T12:06:28;24.10;53.30
48806;DHT22;34625;47.176;27.548;2023-03-13T12:09:00;24.10;52.90
48806;DHT22;34625;47.176;27.548;2023-03-13T12:11:33;24.10;52.70
48806;DHT22;34625;47.176;27.548;2023-03-13T12:14:08;24.00;52.30
48806;DHT22;34625;47.176;27.548;2023-03-13T12:17:05;24.10;53.10
48806;DHT22;34625;47.176;27.548;2023-03-13T12:19:49;24.00;52.10
48806;DHT22;34625;47.176;27.548;2023-03-13T12:25:05;24.00;51.90
48806;DHT22;34625;47.176;27.548;2023-03-13T12:27:40;24.00;44.60
48806;DHT22;34625;47.176;27.548;2023-03-13T12:33:34;24.00;52.50
48806;DHT22;34625;47.176;27.548;2023-03-13T12:36:23;23.90;55.30
48806;DHT22;34625;47.176;27.548;2023-03-13T12:41:51;23.90;42.50
48806;DHT22;34625;47.176;27.548;2023-03-13T12:44:22;24.00;49.10
48806;DHT22;34625;47.176;27.548;2023-03-13T12:52:42;24.10;52.00
48806;DHT22;34625;47.176;27.548;2023-03-13T13:00:48;23.90;52.00
48806;DHT22;34625;47.176;27.548;2023-03-13T13:03:25;24.10;52.70
48806;DHT22;34625;47.176;27.548;2023-03-13T13:06:14;24.00;53.20
48806;DHT22;34625;47.176;27.548;2023-03-13T13:11:42;23.80;51.30
48806;DHT22;34625;47.176;27.548;2023-03-13T13:16:50;23.80;51.20
48806;DHT22;34625;47.176;27.548;2023-03-13T13:24:59;23.80;56.50
48806;DHT22;34625;47.176;27.548;2023-03-13T13:27:45;23.70;52.10
48806;DHT22;34625;47.176;27.548;2023-03-13T13:32:54;23.70;50.70
48806;DHT22;34625;47.176;27.548;2023-03-13T13:35:33;23.70;49.90
48806;DHT22;34625;47.176;27.548;2023-03-13T13:43:33;23.60;44.00
48806;DHT22;34625;47.176;27.548;2023-03-13T13:48:33;23.70;47.40
48806;DHT22;34625;47.176;27.548;2023-03-13T13:53:50;23.70;44.40
48806;DHT22;34625;47.176;27.548;2023-03-13T14:01:45;23.60;43.50
48806;DHT22;34625;47.176;27.548;2023-03-13T14:04:27;23.40;45.00
48806;DHT22;34625;47.176;27.548;2023-03-13T14:07:00;23.40;35.70
48806;DHT22;34625;47.176;27.548;2023-03-13T14:09:33;23.40;44.00
48806;DHT22;34625;47.176;27.548;2023-03-13T14:22:58;23.40;46.50
48806;DHT22;34625;47.176;27.548;2023-03-13T14:25:26;23.30;46.90
48806;DHT22;34625;47.176;27.548;2023-03-13T14:27:54;23.40;47.10
48806;DHT22;34625;47.176;27.548;2023-03-13T14:30:21;23.40;47.20
48806;DHT22;34625;47.176;27.548;2023-03-13T14:32:48;23.40;47.40
48806;DHT22;34625;47.176;27.548;2023-03-13T14:35:17;23.40;47.40
48806;DHT22;34625;47.176;27.548;2023-03-13T14:37:49;23.30;47.40
48806;DHT22;34625;47.176;27.548;2023-03-13T14:40:25;23.30;46.40
48806;DHT22;34625;47.176;27.548;2023-03-13T14:42:54;23.30;47.90
48806;DHT22;34625;47.176;27.548;2023-03-13T14:45:32;23.40;48.00
48806;DHT22;34625;47.176;27.548;2023-03-13T14:50:45;23.40;48.40
48806;DHT22;34625;47.176;27.548;2023-03-13T14:53:16;23.40;48.10
48806;DHT22;34625;47.176;27.548;2023-03-13T14:55:42;23.40;48.60
48806;DHT22;34625;47.176;27.548;2023-03-13T14:58:24;23.40;48.20
48806;DHT22;34625;47.176;27.548;2023-03-13T15:00:52;23.40;48.60
48806;DHT22;34625;47.176;27.548;2023-03-13T15:03:26;23.40;48.90
48806;DHT22;34625;47.176;27.548;2023-03-13T15:08:37;23.30;48.80
48806;DHT22;34625;47.176;27.548;2023-03-13T15:11:51;23.20;46.20
48806;DHT22;34625;47.176;27.548;2023-03-13T15:14:36;23.20;49.30
48806;DHT22;34625;47.176;27.548;2023-03-13T15:17:04;23.30;46.90
48806;DHT22;34625;47.176;27.548;2023-03-13T15:19:34;23.20;47.50
48806;DHT22;34625;47.176;27.548;2023-03-13T15:22:01;23.20;49.40
48806;DHT22;34625;47.176;27.548;2023-03-13T15:24:27;23.30;50.20
48806;DHT22;34625;47.176;27.548;2023-03-13T15:26:53;23.20;50.20
48806;DHT22;34625;47.176;27.548;2023-03-13T15:29:19;23.10;50.50
48806;DHT22;34625;47.176;27.548;2023-03-13T15:31:45;23.00;50.50
48806;DHT22;34625;47.176;27.548;2023-03-13T15:34:12;23.30;50.60
48806;DHT22;34625;47.176;27.548;2023-03-13T15:36:38;23.10;48.50
48806;DHT22;34625;47.176;27.548;2023-03-13T15:39:16;23.10;50.70
48806;DHT22;34625;47.176;27.548;2023-03-13T15:41:45;23.10;51.20
48806;DHT22;34625;47.176;27.548;2023-03-13T15:44:11;23.20;51.30
48806;DHT22;34625;47.176;27.548;2023-03-13T15:46:37;23.10;51.50
48806;DHT22;34625;47.176;27.548;2023-03-13T15:49:03;23.20;51.90
48806;DHT22;34625;47.176;27.548;2023-03-13T15:51:29;23.20;55.30
48806;DHT22;34625;47.176;27.548;2023-03-13T15:53:56;23.50;57.80
48806;DHT22;34625;47.176;27.548;2023-03-13T15:56:22;23.60;46.60
48806;DHT22;34625;47.176;27.548;2023-03-13T15:58:49;23.50;46.90
48806;DHT22;34625;47.176;27.548;2023-03-13T16:01:17;23.80;51.90
48806;DHT22;34625;47.176;27.548;2023-03-13T16:03:43;24.00;51.10
48806;DHT22;34625;47.176;27.548;2023-03-13T16:06:13;24.00;50.30
48806;DHT22;34625;47.176;27.548;2023-03-13T16:08:40;24.00;51.60
48806;DHT22;34625;47.176;27.548;2023-03-13T16:11:06;24.00;48.70
48806;DHT22;34625;47.176;27.548;2023-03-13T16:13:32;23.90;51.60
48806;DHT22;34625;47.176;27.548;2023-03-13T16:15:58;24.00;51.40
48806;DHT22;34625;47.176;27.548;2023-03-13T16:18:24;23.90;50.90
48806;DHT22;34625;47.176;27.548;2023-03-13T16:20:51;23.90;51.60
48806;DHT22;34625;47.176;27.548;2023-03-13T16:23:17;23.70;52.60
48806;DHT22;34625;47.176;27.548;2023-03-13T16:25:45;23.80;52.70
48806;DHT22;34625;47.176;27.548;2023-03-13T16:28:12;23.70;53.00
48806;DHT22;34625;47.176;27.548;2023-03-13T16:30:40;23.70;53.50
48806;DHT22;34625;47.176;27.548;2023-03-13T16:33:08;23.70;53.60
48806;DHT22;34625;47.176;27.548;2023-03-13T16:35:35;23.50;53.30
48806;DHT22;34625;47.176;27.548;2023-03-13T16:38:01;23.60;54.00
48806;DHT22;34625;47.176;27.548;2023-03-13T16:40:30;23.50;54.60
48806;DHT22;34625;47.176;27.548;2023-03-13T16:42:57;23.60;55.00
48806;DHT22;34625;47.176;27.548;2023-03-13T16:45:23;23.50;55.20
48806;DHT22;34625;47.176;27.548;2023-03-13T16:47:49;23.60;54.30
48806;DHT22;34625;47.176;27.548;2023-03-13T16:52:48;23.60;48.60
48806;DHT22;34625;47.176;27.548;2023-03-13T16:55:15;23.90;55.80
48806;DHT22;34625;47.176;27.548;2023-03-13T16:57:41;24.00;54.80
48806;DHT22;34625;47.176;27.548;2023-03-13T17:00:18;24.10;54.90
48806;DHT22;34625;47.176;27.548;2023-03-13T17:02:45;24.10;55.20
48806;DHT22;34625;47.176;27.548;2023-03-13T17:05:11;24.10;55.30
48806;DHT22;34625;47.176;27.548;2023-03-13T17:07:48;24.10;55.30
48806;DHT22;34625;47.176;27.548;2023-03-13T17:12:43;23.70;51.70
48806;DHT22;34625;47.176;27.548;2023-03-13T17:15:09;23.60;52.90
48806;DHT22;34625;47.176;27.548;2023-03-13T17:17:36;23.50;50.30
48806;DHT22;34625;47.176;27.548;2023-03-13T17:20:03;23.40;52.60
48806;DHT22;34625;47.176;27.548;2023-03-13T17:22:30;23.30;53.60
48806;DHT22;34625;47.176;27.548;2023-03-13T17:24:56;23.10;50.30
48806;DHT22;34625;47.176;27.548;2023-03-13T17:27:22;23.10;50.60
48806;DHT22;34625;47.176;27.548;2023-03-13T17:29:48;23.00;55.00
48806;DHT22;34625;47.176;27.548;2023-03-13T17:32:14;23.00;52.20
48806;DHT22;34625;47.176;27.548;2023-03-13T17:34:41;22.90;53.60
48806;DHT22;34625;47.176;27.548;2023-03-13T17:37:15;22.80;53.00
48806;DHT22;34625;47.176;27.548;2023-03-13T17:39:42;22.80;46.80
48806;DHT22;34625;47.176;27.548;2023-03-13T17:42:08;22.70;35.50
48806;DHT22;34625;47.176;27.548;2023-03-13T17:44:34;22.50;51.30